Terminal Aerodrome Forecast
Issued by NWS Cleveland, OH

Home | Current Version | Previous Version | Graphics & Text | Print | Product List | Glossary Off
Versions: 1 2 3 4 5 6 7 8 9 10 11 12 13 14 15 16 17 18 19 20 21

000
FTUS41 KCLE 300339 AAB
TAFTOL
TAF AMD
KTOL 300339Z 3004/3024 04003KT P6SM VCSH SCT025 BKN120
      TEMPO 3004/3008 BKN025
     FM300800 04003KT 5SM BR SCT012 BKN200
      TEMPO 3009/3013 3SM BR BKN012
     FM301400 06005KT P6SM SCT035 BKN120
     FM301600 10005KT P6SM VCTS BKN045CB=

USA.gov is the U.S. government's official web portal to all federal, state and local government web resources and services.